Time,TemperatureF,DewpointF,PressureIn,WindDirection,WindDirectionDegrees,WindSpeedMPH,WindSpeedGustMPH,Humidity,HourlyPrecipIn,Conditions,Clouds,dailyrainin,SoftwareType,DateUTC
2012-10-30 06:55:00,26.2,18.7,30.22,NNW,338,0.0,0.0,73,0.00,,---,0.00,VWS V14.01,2012-10-30 12:55:00,
2012-10-30 07:07:00,26.2,18.1,30.27,NNW,338,0.0,0.0,71,0.00,,---,0.00,VWS V14.01,2012-10-30 13:07:00,
2012-10-30 07:09:00,26.0,17.9,30.27,NNW,338,0.0,0.0,71,0.00,,---,0.00,VWS V14.01,2012-10-30 13:09:00,
2012-10-30 07:14:00,25.7,17.6,30.27,NNW,338,0.0,0.0,71,0.00,,---,0.00,VWS V14.01,2012-10-30 13:14:00,
2012-10-30 07:19:00,25.5,17.8,30.28,NNW,338,0.0,0.0,72,0.00,,---,0.00,VWS V14.01,2012-10-30 13:19:00,
2012-10-30 07:24:00,25.3,17.2,30.29,NNW,338,0.0,0.0,71,0.00,,---,0.00,VWS V14.01,2012-10-30 13:24:00,
2012-10-30 07:29:00,24.8,16.4,30.30,NNW,338,0.0,1.0,70,0.00,,---,0.00,VWS V14.01,2012-10-30 13:29:00,
2012-10-30 07:34:00,23.9,17.8,30.30,NNW,338,0.0,2.0,77,0.00,,---,0.00,VWS V14.01,2012-10-30 13:34:00,
2012-10-30 07:39:00,23.4,15.7,30.31,NNW,338,0.0,2.0,72,0.00,,---,0.00,VWS V14.01,2012-10-30 13:39:00,
2012-10-30 07:44:00,23.2,15.8,30.32,NNW,338,0.0,1.0,73,0.00,,---,0.00,VWS V14.01,2012-10-30 13:44:00,
2012-10-30 07:49:00,23.5,16.8,30.31,NNW,338,0.0,1.0,75,0.00,,---,0.00,VWS V14.01,2012-10-30 13:49:00,
2012-10-30 07:54:00,24.1,17.0,30.30,NNW,338,0.0,1.0,74,0.00,,---,0.00,VWS V14.01,2012-10-30 13:54:00,
2012-10-30 07:59:00,24.9,17.8,30.30,NNW,338,0.0,1.0,74,0.00,,---,0.00,VWS V14.01,2012-10-30 13:59:00,
2012-10-30 08:04:00,26.0,18.2,30.29,NNW,338,0.0,1.0,72,0.00,,---,0.00,VWS V14.01,2012-10-30 14:04:00,
2012-10-30 08:09:00,26.9,18.8,30.34,NNW,338,0.0,0.0,71,0.00,,---,0.00,VWS V14.01,2012-10-30 14:09:00,
2012-10-30 08:14:00,28.4,19.9,30.34,NNW,338,0.0,0.0,70,0.00,,---,0.00,VWS V14.01,2012-10-30 14:14:00,
2012-10-30 08:19:00,30.0,20.7,30.33,NNW,338,0.0,0.0,68,0.00,,---,0.00,VWS V14.01,2012-10-30 14:19:00,
2012-10-30 08:24:00,31.0,21.0,30.31,NNW,338,0.0,0.0,66,0.00,,---,0.00,VWS V14.01,2012-10-30 14:24:00,
2012-10-30 08:29:00,31.0,20.3,30.31,NNW,338,0.0,0.0,64,0.00,,---,0.00,VWS V14.01,2012-10-30 14:29:00,
2012-10-30 08:34:00,30.9,20.5,30.31,NNW,338,0.0,0.0,65,0.00,,---,0.00,VWS V14.01,2012-10-30 14:34:00,
2012-10-30 08:39:00,30.9,20.9,30.31,NNW,338,0.0,0.0,66,0.00,,---,0.00,VWS V14.01,2012-10-30 14:39:00,
2012-10-30 08:44:00,31.1,21.4,30.31,NNW,338,0.0,0.0,67,0.00,,---,0.00,VWS V14.01,2012-10-30 14:44:00,
2012-10-30 08:49:00,31.5,21.8,30.31,NNW,338,0.0,0.0,67,0.00,,---,0.00,VWS V14.01,2012-10-30 14:49:00,
2012-10-30 08:54:00,32.3,22.9,30.32,NNW,338,0.0,0.0,68,0.00,,---,0.00,VWS V14.01,2012-10-30 14:54:00,
2012-10-30 08:59:00,33.5,23.4,30.30,NNW,338,0.0,0.0,66,0.00,,---,0.00,VWS V14.01,2012-10-30 14:59:00,
2012-10-30 09:04:00,34.4,23.5,30.29,NNW,338,0.0,0.0,64,0.00,,---,0.00,VWS V14.01,2012-10-30 15:04:00,
2012-10-30 09:09:00,35.6,24.3,30.29,NNW,338,0.0,0.0,63,0.00,,---,0.00,VWS V14.01,2012-10-30 15:09:00,
2012-10-30 09:14:00,36.8,25.0,30.27,NNW,338,0.0,0.0,62,0.00,,---,0.00,VWS V14.01,2012-10-30 15:14:00,
2012-10-30 09:19:00,38.1,25.1,30.27,NNW,338,0.0,0.0,59,0.00,,---,0.00,VWS V14.01,2012-10-30 15:19:00,
2012-10-30 09:24:00,39.0,25.1,30.25,NNW,338,0.0,0.0,57,0.00,,---,0.00,VWS V14.01,2012-10-30 15:24:00,
2012-10-30 09:29:00,39.8,25.8,30.25,NNW,338,0.0,0.0,57,0.00,,---,0.00,VWS V14.01,2012-10-30 15:29:00,
2012-10-30 09:35:00,40.7,26.2,30.24,NNW,338,0.0,1.0,56,0.00,,---,0.00,VWS V14.01,2012-10-30 15:35:00,
2012-10-30 09:40:00,41.8,26.8,30.24,NNW,338,0.0,2.0,55,0.00,,---,0.00,VWS V14.01,2012-10-30 15:40:00,
2012-10-30 09:45:00,43.0,27.5,30.22,NNW,338,0.0,0.0,54,0.00,,---,0.00,VWS V14.01,2012-10-30 15:45:00,
2012-10-30 09:50:00,44.3,28.3,30.22,NNW,338,0.0,0.0,53,0.00,,---,0.00,VWS V14.01,2012-10-30 15:50:00,
2012-10-30 09:55:00,45.1,27.6,30.20,NNW,338,0.0,1.0,50,0.00,,---,0.00,VWS V14.01,2012-10-30 15:55:00,
2012-10-30 10:00:00,46.1,27.5,30.20,NNW,338,0.0,0.0,48,0.00,,---,0.00,VWS V14.01,2012-10-30 16:00:00,
2012-10-30 10:05:00,47.0,26.2,30.18,NNW,338,0.0,0.0,44,0.00,,---,0.00,VWS V14.01,2012-10-30 16:05:00,
2012-10-30 10:10:00,47.7,25.8,30.17,NNW,338,0.0,1.0,42,0.00,,---,0.00,VWS V14.01,2012-10-30 16:10:00,
2012-10-30 10:15:00,48.3,25.1,30.16,NNW,338,1.0,1.0,40,0.00,,---,0.00,VWS V14.01,2012-10-30 16:15:00,
2012-10-30 10:20:00,48.6,24.8,30.16,NNW,338,0.0,0.0,39,0.00,,---,0.00,VWS V14.01,2012-10-30 16:20:00,
2012-10-30 10:25:00,49.2,25.3,30.16,NNW,338,0.0,0.0,39,0.00,,---,0.00,VWS V14.01,2012-10-30 16:25:00,
2012-10-30 10:30:00,49.6,25.0,30.14,NNW,338,1.0,4.0,38,0.00,,---,0.00,VWS V14.01,2012-10-30 16:30:00,
2012-10-30 10:35:00,49.7,25.1,30.14,NNW,338,0.0,1.0,38,0.00,,---,0.00,VWS V14.01,2012-10-30 16:35:00,
2012-10-30 10:40:00,49.7,24.5,30.14,NNW,338,0.0,0.0,37,0.00,,---,0.00,VWS V14.01,2012-10-30 16:40:00,
2012-10-30 10:45:00,50.0,24.8,30.14,NNW,338,0.0,2.0,37,0.00,,---,0.00,VWS V14.01,2012-10-30 16:45:00,
2012-10-30 10:50:00,50.3,25.0,30.14,NNW,338,0.0,1.0,37,0.00,,---,0.00,VWS V14.01,2012-10-30 16:50:00,
2012-10-30 10:55:00,50.5,24.6,30.14,NNW,338,3.0,4.0,36,0.00,,---,0.00,VWS V14.01,2012-10-30 16:55:00,
2012-10-30 11:00:00,50.8,24.8,30.14,NNW,338,0.0,2.0,36,0.00,,---,0.00,VWS V14.01,2012-10-30 17:00:00,
2012-10-30 11:05:00,51.2,25.2,30.17,NNW,338,2.0,2.0,36,0.00,,---,0.00,VWS V14.01,2012-10-30 17:05:00,
2012-10-30 11:10:00,51.5,24.8,30.17,NNW,338,0.0,0.0,35,0.00,,---,0.00,VWS V14.01,2012-10-30 17:10:00,
2012-10-30 11:15:00,51.8,25.0,30.17,NNW,338,1.0,1.0,35,0.00,,---,0.00,VWS V14.01,2012-10-30 17:15:00,
2012-10-30 11:20:00,52.2,24.7,30.17,NNW,338,0.0,2.0,34,0.00,,---,0.00,VWS V14.01,2012-10-30 17:20:00,
2012-10-30 11:25:00,52.6,25.0,30.15,NNW,338,1.0,1.0,34,0.00,,---,0.00,VWS V14.01,2012-10-30 17:25:00,
2012-10-30 11:30:00,53.2,24.9,30.14,NNW,338,1.0,1.0,33,0.00,,---,0.00,VWS V14.01,2012-10-30 17:30:00,
2012-10-30 11:35:00,53.7,24.6,30.14,NNW,338,0.0,1.0,32,0.00,,---,0.00,VWS V14.01,2012-10-30 17:35:00,
2012-10-30 11:40:00,54.2,24.2,30.14,NNW,338,0.0,1.0,31,0.00,,---,0.00,VWS V14.01,2012-10-30 17:40:00,
2012-10-30 11:45:00,54.8,24.8,30.12,NNW,338,1.0,4.0,31,0.00,,---,0.00,VWS V14.01,2012-10-30 17:45:00,
2012-10-30 11:50:00,55.3,24.4,30.12,NNW,338,0.0,1.0,30,0.00,,---,0.00,VWS V14.01,2012-10-30 17:50:00,
2012-10-30 11:56:00,55.9,24.1,30.12,NNW,338,1.0,2.0,29,0.00,,---,0.00,VWS V14.01,2012-10-30 17:56:00,
2012-10-30 12:01:00,56.1,24.3,30.11,NNW,338,1.0,6.0,29,0.00,,---,0.00,VWS V14.01,2012-10-30 18:01:00,
2012-10-30 12:06:00,56.4,24.6,30.13,NNW,338,4.0,4.0,29,0.00,,---,0.00,VWS V14.01,2012-10-30 18:06:00,
2012-10-30 12:11:00,56.6,23.0,30.11,NNW,338,0.0,2.0,27,0.00,,---,0.00,VWS V14.01,2012-10-30 18:11:00,
2012-10-30 12:16:00,57.2,24.4,30.11,NNW,338,1.0,1.0,28,0.00,,---,0.00,VWS V14.01,2012-10-30 18:16:00,
2012-10-30 12:21:00,57.5,22.9,30.11,NNW,338,7.0,9.0,26,0.00,,---,0.00,VWS V14.01,2012-10-30 18:21:00,
2012-10-30 12:26:00,57.1,23.5,30.10,NNW,338,6.0,9.0,27,0.00,,---,0.00,VWS V14.01,2012-10-30 18:26:00,
2012-10-30 12:31:00,57.1,23.5,30.10,NNW,338,0.0,2.0,27,0.00,,---,0.00,VWS V14.01,2012-10-30 18:31:00,
2012-10-30 12:36:00,57.4,23.7,30.10,NNW,338,4.0,5.0,27,0.00,,---,0.00,VWS V14.01,2012-10-30 18:36:00,
2012-10-30 12:41:00,57.7,24.0,30.09,NNW,338,0.0,0.0,27,0.00,,---,0.00,VWS V14.01,2012-10-30 18:41:00,
2012-10-30 12:46:00,58.5,24.7,30.09,NNW,338,4.0,5.0,27,0.00,,---,0.00,VWS V14.01,2012-10-30 18:46:00,
2012-10-30 12:51:00,59.0,24.2,30.07,NNW,338,0.0,4.0,26,0.00,,---,0.00,VWS V14.01,2012-10-30 18:51:00,
2012-10-30 12:56:00,59.0,24.2,30.07,NNW,338,0.0,5.0,26,0.00,,---,0.00,VWS V14.01,2012-10-30 18:56:00,
2012-10-30 13:01:00,59.0,23.2,30.07,NNW,338,3.0,5.0,25,0.00,,---,0.00,VWS V14.01,2012-10-30 19:01:00,
2012-10-30 13:06:00,59.3,23.5,30.07,NNW,338,0.0,2.0,25,0.00,,---,0.00,VWS V14.01,2012-10-30 19:06:00,
2012-10-30 13:11:00,59.4,23.6,30.06,NNW,338,1.0,4.0,25,0.00,,---,0.00,VWS V14.01,2012-10-30 19:11:00,
2012-10-30 13:16:00,59.8,23.9,30.06,NNW,338,0.0,1.0,25,0.00,,---,0.00,VWS V14.01,2012-10-30 19:16:00,
2012-10-30 13:21:00,60.3,25.3,30.05,NNW,338,1.0,2.0,26,0.00,,---,0.00,VWS V14.01,2012-10-30 19:21:00,
2012-10-30 13:26:00,60.5,24.5,30.03,NNW,338,0.0,5.0,25,0.00,,---,0.00,VWS V14.01,2012-10-30 19:26:00,
2012-10-30 13:31:00,60.2,24.3,30.05,NNW,338,0.0,3.0,25,0.00,,---,0.00,VWS V14.01,2012-10-30 19:31:00,
2012-10-30 13:36:00,60.6,24.6,30.03,NNW,338,0.0,2.0,25,0.00,,---,0.00,VWS V14.01,2012-10-30 19:36:00,
2012-10-30 13:41:00,60.7,23.7,30.02,NNW,338,2.0,5.0,24,0.00,,---,0.00,VWS V14.01,2012-10-30 19:41:00,
2012-10-30 13:46:00,60.5,23.5,30.02,NNW,338,2.0,2.0,24,0.00,,---,0.00,VWS V14.01,2012-10-30 19:46:00,
2012-10-30 13:51:00,60.8,23.8,30.02,NNW,338,0.0,1.0,24,0.00,,---,0.00,VWS V14.01,2012-10-30 19:51:00,
2012-10-30 13:56:00,60.9,23.9,30.02,NNW,338,0.0,0.0,24,0.00,,---,0.00,VWS V14.01,2012-10-30 19:56:00,
2012-10-30 14:01:00,61.6,23.5,30.01,NNW,338,0.0,1.0,23,0.00,,---,0.00,VWS V14.01,2012-10-30 20:01:00,
2012-10-30 14:06:00,62.2,24.0,30.01,NNW,338,0.0,5.0,23,0.00,,---,0.00,VWS V14.01,2012-10-30 20:06:00,
2012-10-30 14:11:00,61.7,23.5,30.01,NNW,338,3.0,3.0,23,0.00,,---,0.00,VWS V14.01,2012-10-30 20:11:00,
2012-10-30 14:16:00,61.3,23.2,30.01,NNW,338,0.0,1.0,23,0.00,,---,0.00,VWS V14.01,2012-10-30 20:16:00,
2012-10-30 14:21:00,62.0,23.8,30.00,NNW,338,0.0,1.0,23,0.00,,---,0.00,VWS V14.01,2012-10-30 20:21:00,
2012-10-30 14:26:00,62.6,23.2,29.99,NNW,338,0.0,3.0,22,0.00,,---,0.00,VWS V14.01,2012-10-30 20:26:00,
2012-10-30 14:31:00,62.8,23.4,29.99,NNW,338,0.0,2.0,22,0.00,,---,0.00,VWS V14.01,2012-10-30 20:31:00,
2012-10-30 14:36:00,63.0,23.6,29.98,NNW,338,2.0,4.0,22,0.00,,---,0.00,VWS V14.01,2012-10-30 20:36:00,
2012-10-30 14:41:00,62.5,23.2,29.98,NNW,338,2.0,2.0,22,0.00,,---,0.00,VWS V14.01,2012-10-30 20:41:00,
2012-10-30 14:47:00,62.2,22.9,30.00,NNW,338,3.0,3.0,22,0.00,,---,0.00,VWS V14.01,2012-10-30 20:47:00,
2012-10-30 14:52:00,62.1,22.8,29.99,NNW,338,0.0,2.0,22,0.00,,---,0.00,VWS V14.01,2012-10-30 20:52:00,
2012-10-30 14:57:00,62.7,23.3,29.97,NNW,338,1.0,3.0,22,0.00,,---,0.00,VWS V14.01,2012-10-30 20:57:00,
2012-10-30 15:02:00,63.3,23.8,29.97,NNW,338,0.0,1.0,22,0.00,,---,0.00,VWS V14.01,2012-10-30 21:02:00,
2012-10-30 15:07:00,63.6,24.1,29.99,NNW,338,0.0,4.0,22,0.00,,---,0.00,VWS V14.01,2012-10-30 21:07:00,
2012-10-30 15:12:00,63.5,22.9,29.99,NNW,338,1.0,3.0,21,0.00,,---,0.00,VWS V14.01,2012-10-30 21:12:00,
2012-10-30 15:17:00,63.4,22.8,29.99,NNW,338,0.0,2.0,21,0.00,,---,0.00,VWS V14.01,2012-10-30 21:17:00,
2012-10-30 15:22:00,64.0,23.3,29.99,NNW,338,1.0,1.0,21,0.00,,---,0.00,VWS V14.01,2012-10-30 21:22:00,
2012-10-30 15:27:00,64.8,22.8,29.97,NNW,338,0.0,4.0,20,0.00,,---,0.00,VWS V14.01,2012-10-30 21:27:00,
2012-10-30 15:32:00,65.4,24.5,29.97,NNW,338,0.0,2.0,21,0.00,,---,0.00,VWS V14.01,2012-10-30 21:32:00,
2012-10-30 15:37:00,65.6,24.6,29.96,NNW,338,1.0,1.0,21,0.00,,---,0.00,VWS V14.01,2012-10-30 21:37:00,
2012-10-30 15:42:00,65.7,24.7,29.97,NNW,338,1.0,2.0,21,0.00,,---,0.00,VWS V14.01,2012-10-30 21:42:00,
2012-10-30 15:47:00,65.6,23.5,29.97,NNW,338,0.0,4.0,20,0.00,,---,0.00,VWS V14.01,2012-10-30 21:47:00,
2012-10-30 15:52:00,65.4,24.5,29.97,NNW,338,0.0,4.0,21,0.00,,---,0.00,VWS V14.01,2012-10-30 21:52:00,
2012-10-30 15:57:00,65.3,23.2,29.97,NNW,338,3.0,5.0,20,0.00,,---,0.00,VWS V14.01,2012-10-30 21:57:00,
2012-10-30 16:02:00,64.7,22.7,29.96,NNW,338,0.0,1.0,20,0.00,,---,0.00,VWS V14.01,2012-10-30 22:02:00,
2012-10-30 16:07:00,64.3,22.4,29.98,NNW,338,1.0,4.0,20,0.00,,---,0.00,VWS V14.01,2012-10-30 22:07:00,
2012-10-30 16:12:00,63.9,23.2,29.98,NNW,338,0.0,1.0,21,0.00,,---,0.00,VWS V14.01,2012-10-30 22:12:00,
2012-10-30 16:17:00,65.0,24.1,29.98,NNW,338,1.0,2.0,21,0.00,,---,0.00,VWS V14.01,2012-10-30 22:17:00,
2012-10-30 16:22:00,65.2,23.1,29.98,NNW,338,3.0,5.0,20,0.00,,---,0.00,VWS V14.01,2012-10-30 22:22:00,
2012-10-30 16:27:00,65.2,23.1,29.98,NNW,338,1.0,4.0,20,0.00,,---,0.00,VWS V14.01,2012-10-30 22:27:00,
2012-10-30 16:32:00,65.5,24.6,29.96,NNW,338,0.0,0.0,21,0.00,,---,0.00,VWS V14.01,2012-10-30 22:32:00,
2012-10-30 16:37:00,66.3,24.1,29.96,NNW,338,0.0,1.0,20,0.00,,---,0.00,VWS V14.01,2012-10-30 22:37:00,
2012-10-30 16:42:00,66.7,24.4,29.96,NNW,338,1.0,3.0,20,0.00,,---,0.00,VWS V14.01,2012-10-30 22:42:00,
2012-10-30 16:47:00,66.0,23.8,29.96,NNW,338,0.0,4.0,20,0.00,,---,0.00,VWS V14.01,2012-10-30 22:47:00,
2012-10-30 16:52:00,65.6,23.5,29.97,NNW,338,0.0,6.0,20,0.00,,---,0.00,VWS V14.01,2012-10-30 22:52:00,
2012-10-30 16:57:00,65.4,23.3,29.98,NNW,338,0.0,1.0,20,0.00,,---,0.00,VWS V14.01,2012-10-30 22:57:00,
2012-10-30 17:02:00,65.2,24.3,29.98,NNW,338,0.0,4.0,21,0.00,,---,0.00,VWS V14.01,2012-10-30 23:02:00,
2012-10-30 17:07:00,65.3,23.2,30.00,NNW,338,1.0,5.0,20,0.00,,---,0.00,VWS V14.01,2012-10-30 23:07:00,
2012-10-30 17:12:00,65.3,23.2,29.99,NNW,338,0.0,1.0,20,0.00,,---,0.00,VWS V14.01,2012-10-30 23:12:00,
2012-10-30 17:17:00,65.0,23.0,30.00,NNW,338,4.0,4.0,20,0.00,,---,0.00,VWS V14.01,2012-10-30 23:17:00,
2012-10-30 17:22:00,64.5,21.4,29.99,NNW,338,0.0,4.0,19,0.00,,---,0.00,VWS V14.01,2012-10-30 23:22:00,
2012-10-30 17:27:00,64.5,20.1,30.00,NNW,338,0.0,5.0,18,0.00,,---,0.00,VWS V14.01,2012-10-30 23:27:00,
2012-10-30 17:32:00,64.0,19.7,30.00,NNW,338,1.0,4.0,18,0.00,,---,0.00,VWS V14.01,2012-10-30 23:32:00,
2012-10-30 17:37:00,63.0,20.1,30.01,NNW,338,1.0,4.0,19,0.00,,---,0.00,VWS V14.01,2012-10-30 23:37:00,
2012-10-30 17:42:00,61.1,20.9,30.03,NNW,338,1.0,3.0,21,0.00,,---,0.00,VWS V14.01,2012-10-30 23:42:00,
2012-10-30 17:47:00,59.0,20.2,30.05,NNW,338,3.0,4.0,22,0.00,,---,0.00,VWS V14.01,2012-10-30 23:47:00,
2012-10-30 17:52:00,56.8,19.4,30.07,NNW,338,2.0,4.0,23,0.00,,---,0.00,VWS V14.01,2012-10-30 23:52:00,
2012-10-30 17:58:00,54.8,18.7,30.09,NNW,338,0.0,3.0,24,0.00,,---,0.00,VWS V14.01,2012-10-30 23:58:00,
2012-10-30 18:03:00,53.4,18.5,30.09,NNW,338,0.0,5.0,25,0.00,,---,0.00,VWS V14.01,2012-10-31 00:03:00,
2012-10-30 18:08:00,52.2,18.4,30.09,NNW,338,0.0,1.0,26,0.00,,---,0.00,VWS V14.01,2012-10-31 00:08:00,
2012-10-30 18:13:00,51.4,18.6,30.11,NNW,338,0.0,0.0,27,0.00,,---,0.00,VWS V14.01,2012-10-31 00:13:00,
2012-10-30 18:18:00,50.6,18.7,30.11,NNW,338,0.0,0.0,28,0.00,,---,0.00,VWS V14.01,2012-10-31 00:18:00,
2012-10-30 18:23:00,50.1,18.3,30.11,NNW,338,0.0,0.0,28,0.00,,---,0.00,VWS V14.01,2012-10-31 00:23:00,
2012-10-30 18:28:00,49.8,18.0,30.12,NNW,338,0.0,0.0,28,0.00,,---,0.00,VWS V14.01,2012-10-31 00:28:00,
2012-10-30 18:33:00,49.7,17.9,30.12,NNW,338,0.0,0.0,28,0.00,,---,0.00,VWS V14.01,2012-10-31 00:33:00,
2012-10-30 18:38:00,49.6,18.7,30.12,NNW,338,0.0,0.0,29,0.00,,---,0.00,VWS V14.01,2012-10-31 00:38:00,
2012-10-30 18:43:00,49.2,17.5,30.14,NNW,338,0.0,0.0,28,0.00,,---,0.00,VWS V14.01,2012-10-31 00:43:00,
2012-10-30 18:48:00,48.5,16.9,30.14,NNW,338,0.0,1.0,28,0.00,,---,0.00,VWS V14.01,2012-10-31 00:48:00,
2012-10-30 18:53:00,47.9,17.2,30.14,NNW,338,0.0,0.0,29,0.00,,---,0.00,VWS V14.01,2012-10-31 00:53:00,
2012-10-30 18:58:00,47.4,16.8,30.15,NNW,338,1.0,1.0,29,0.00,,---,0.00,VWS V14.01,2012-10-31 00:58:00,
2012-10-30 19:03:00,46.3,16.6,30.17,NNW,338,0.0,1.0,30,0.00,,---,0.00,VWS V14.01,2012-10-31 01:03:00,
2012-10-30 19:08:00,45.8,16.9,30.17,NNW,338,0.0,0.0,31,0.00,,---,0.00,VWS V14.01,2012-10-31 01:08:00,
2012-10-30 19:13:00,45.4,16.5,30.18,NNW,338,0.0,0.0,31,0.00,,---,0.00,VWS V14.01,2012-10-31 01:13:00,
2012-10-30 19:18:00,45.1,16.3,30.20,NNW,338,0.0,0.0,31,0.00,,---,0.00,VWS V14.01,2012-10-31 01:18:00,
2012-10-30 19:23:00,44.9,16.1,30.20,NNW,338,0.0,0.0,31,0.00,,---,0.00,VWS V14.01,2012-10-31 01:23:00,
2012-10-30 19:28:00,44.2,15.5,30.21,NNW,338,0.0,1.0,31,0.00,,---,0.00,VWS V14.01,2012-10-31 01:28:00,
2012-10-30 19:33:00,43.8,15.9,30.20,NNW,338,0.0,1.0,32,0.00,,---,0.00,VWS V14.01,2012-10-31 01:33:00,
2012-10-30 19:38:00,43.6,16.4,30.21,NNW,338,0.0,6.0,33,0.00,,---,0.00,VWS V14.01,2012-10-31 01:38:00,
2012-10-30 19:43:00,43.1,16.7,30.22,NNW,338,1.0,1.0,34,0.00,,---,0.00,VWS V14.01,2012-10-31 01:43:00,
2012-10-30 19:48:00,42.0,17.6,30.22,NNW,338,0.0,2.0,37,0.00,,---,0.00,VWS V14.01,2012-10-31 01:48:00,
2012-10-30 19:53:00,40.7,17.7,30.25,NNW,338,2.0,6.0,39,0.00,,---,0.00,VWS V14.01,2012-10-31 01:53:00,
2012-10-30 19:58:00,39.8,16.9,30.25,NNW,338,1.0,4.0,39,0.00,,---,0.00,VWS V14.01,2012-10-31 01:58:00,
2012-10-30 20:03:00,39.5,16.6,30.25,NNW,338,0.0,5.0,39,0.00,,---,0.00,VWS V14.01,2012-10-31 02:03:00,
2012-10-30 20:08:00,40.1,16.5,30.18,NNW,338,0.0,6.0,38,0.00,,---,0.00,VWS V14.01,2012-10-31 02:08:00,
2012-10-30 20:13:00,40.7,16.5,30.19,NNW,338,4.0,4.0,37,0.00,,---,0.00,VWS V14.01,2012-10-31 02:13:00,
2012-10-30 20:18:00,41.1,16.8,30.19,NNW,338,0.0,5.0,37,0.00,,---,0.00,VWS V14.01,2012-10-31 02:18:00,
2012-10-30 20:24:00,41.1,16.8,30.19,NNW,338,0.0,2.0,37,0.00,,---,0.00,VWS V14.01,2012-10-31 02:24:00,
2012-10-30 20:29:00,41.2,17.5,30.19,NNW,338,0.0,1.0,38,0.00,,---,0.00,VWS V14.01,2012-10-31 02:29:00,
2012-10-30 20:34:00,41.2,17.5,30.19,NNW,338,0.0,0.0,38,0.00,,---,0.00,VWS V14.01,2012-10-31 02:34:00,
2012-10-30 20:39:00,41.0,17.4,30.19,NNW,338,0.0,0.0,38,0.00,,---,0.00,VWS V14.01,2012-10-31 02:39:00,
2012-10-30 20:44:00,40.7,17.1,30.20,NNW,338,0.0,0.0,38,0.00,,---,0.00,VWS V14.01,2012-10-31 02:44:00,
2012-10-30 20:49:00,40.2,17.2,30.20,NNW,338,0.0,1.0,39,0.00,,---,0.00,VWS V14.01,2012-10-31 02:49:00,
2012-10-30 20:54:00,39.8,16.9,30.20,NNW,338,1.0,1.0,39,0.00,,---,0.00,VWS V14.01,2012-10-31 02:54:00,
2012-10-30 20:59:00,39.5,17.2,30.20,NNW,338,0.0,1.0,40,0.00,,---,0.00,VWS V14.01,2012-10-31 02:59:00,
2012-10-30 21:04:00,39.3,17.0,30.22,NNW,338,0.0,1.0,40,0.00,,---,0.00,VWS V14.01,2012-10-31 03:04:00,
2012-10-30 21:09:00,38.9,17.2,30.11,NNW,338,0.0,1.0,41,0.00,,---,0.00,VWS V14.01,2012-10-31 03:09:00,
2012-10-30 21:14:00,38.3,16.7,30.11,NNW,338,0.0,2.0,41,0.00,,---,0.00,VWS V14.01,2012-10-31 03:14:00,
2012-10-30 21:19:00,37.5,16.5,30.13,NNW,338,0.0,0.0,42,0.00,,---,0.00,VWS V14.01,2012-10-31 03:19:00,
2012-10-30 21:24:00,36.8,16.4,30.13,NNW,338,0.0,0.0,43,0.00,,---,0.00,VWS V14.01,2012-10-31 03:24:00,
2012-10-30 21:29:00,36.5,16.7,30.13,NNW,338,0.0,0.0,44,0.00,,---,0.00,VWS V14.01,2012-10-31 03:29:00,
2012-10-30 21:34:00,36.4,16.6,30.15,NNW,338,0.0,0.0,44,0.00,,---,0.00,VWS V14.01,2012-10-31 03:34:00,
2012-10-30 21:39:00,36.2,16.9,30.15,NNW,338,0.0,0.0,45,0.00,,---,0.00,VWS V14.01,2012-10-31 03:39:00,
2012-10-30 21:44:00,36.1,16.8,30.15,NNW,338,0.0,0.0,45,0.00,,---,0.00,VWS V14.01,2012-10-31 03:44:00,
2012-10-30 21:49:00,36.0,16.7,30.15,NNW,338,0.0,0.0,45,0.00,,---,0.00,VWS V14.01,2012-10-31 03:49:00,
2012-10-30 21:54:00,36.0,16.7,30.15,NNW,338,0.0,0.0,45,0.00,,---,0.00,VWS V14.01,2012-10-31 03:54:00,
2012-10-30 21:59:00,35.9,16.6,30.15,NNW,338,0.0,0.0,45,0.00,,---,0.00,VWS V14.01,2012-10-31 03:59:00,
2012-10-30 22:00:00,35.9,16.6,30.15,NNW,338,0.0,0.0,45,0.00,,---,0.00,VWS V14.01,2012-10-31 04:00:00,